Time;durP1;ratioP1;P1;durP2;ratioP2;P2;SDS_P1;SDS_P2;PMS_P1;PMS_P2;Temp;Humidity;BMP_temperature;BMP_pressure;BME280_temperature;BME280_humidity;BME280_pressure;Samples;Min_cycle;Max_cycle;Signal;HPM_P1;HPM_P2
2022/10/10 00:01:52;;;;;;;;;;;;;;;15.86;48.29;100827.81;4269819;33;19981;-85
2022/10/10 00:04:19;;;;;;;;;;;;;;;16.00;48.30;100822.72;4282386;33;20011;-87
2022/10/10 00:06:46;;;;;;;;;;;;;;;15.88;48.45;100822.59;4281876;33;20429;-86
2022/10/10 00:09:13;;;;;;;;;;;;;;;15.90;48.56;100820.88;4272579;33;19997;-86
2022/10/10 00:11:40;;;;;;;;;;;;;;;15.81;48.90;100822.53;4278270;33;19981;-86
2022/10/10 00:14:07;;;;;;;;;;;;;;;15.89;48.71;100820.00;4274245;33;19977;-87
2022/10/10 00:16:33;;;;;;;;;;;;;;;15.88;48.84;100817.38;4278850;33;20008;-85
2022/10/10 00:19:00;;;;;;;;;;;;;;;15.77;49.14;100812.06;4280343;33;20323;-86
2022/10/10 00:21:27;;;;;;;;;;;;;;;15.76;48.93;100808.56;4275303;33;20040;-87
2022/10/10 00:23:54;;;;;;;;;;;;;;;15.69;48.72;100811.94;4273434;33;20064;-86
2022/10/10 00:26:21;;;;;;;;;;;;;;;15.70;49.01;100812.84;4267383;33;20325;-85
2022/10/10 00:28:47;;;;;;;;;;;;;;;15.34;49.10;100811.50;4267547;33;19993;-85
2022/10/10 00:31:14;;;;;;;;;;;;;;;15.64;48.71;100811.00;4267211;33;19996;-86
2022/10/10 00:33:41;;;;;;;;;;;;;;;15.54;49.12;100812.66;4272026;33;19985;-87
2022/10/10 00:36:08;;;;;;;;;;;;;;;15.51;49.08;100806.53;4281915;33;19993;-86
2022/10/10 00:38:34;;;;;;;;;;;;;;;15.63;48.13;100798.78;4260160;33;20036;-86
2022/10/10 00:41:02;;;;;;;;;;;;;;;15.47;48.67;100802.09;4276737;33;19984;-87
2022/10/10 00:43:29;;;;;;;;;;;;;;;15.58;48.28;100798.75;4246467;33;19999;-87
2022/10/10 00:45:56;;;;;;;;;;;;;;;15.53;47.81;100805.66;4267113;33;20009;-86
2022/10/10 00:48:24;;;;;;;;;;;;;;;15.56;47.83;100799.59;4281613;33;20001;-86
2022/10/10 00:50:58;;;;;;;;;;;;;;;15.46;47.93;100792.53;4254829;33;20001;-85
2022/10/10 00:53:26;;;;;;;;;;;;;;;15.46;48.23;100797.75;4254183;33;19969;-86
2022/10/10 00:55:53;;;;;;;;;;;;;;;15.32;48.43;100785.44;4267180;33;20761;-85
2022/10/10 00:58:20;;;;;;;;;;;;;;;15.41;48.72;100778.53;4249879;33;19981;-85
2022/10/10 01:00:47;;;;;;;;;;;;;;;15.35;47.84;100785.47;4276133;33;20006;-86
2022/10/10 01:03:13;;;;;;;;;;;;;;;15.40;48.41;100782.03;4247447;33;20829;-85
2022/10/10 01:05:40;;;;;;;;;;;;;;;15.34;47.50;100773.25;4263240;33;19990;-85
2022/10/10 01:08:07;;;;;;;;;;;;;;;15.30;48.05;100768.00;4252943;33;20004;-85
2022/10/10 01:10:46;;;;;;;;;;;;;;;15.21;48.56;100776.56;4265423;33;19993;-86
2022/10/10 01:13:17;;;;;;;;;;;;;;;15.45;47.25;100772.53;4252997;33;20359;-85
2022/10/10 01:16:02;;;;;;;;;;;;;;;15.30;46.28;100768.00;4253699;33;20332;-86
2022/10/10 01:18:29;;;;;;;;;;;;;;;15.27;46.38;100766.22;4261368;33;20013;-86
2022/10/10 01:20:58;;;;;;;;;;;;;;;15.38;46.92;100770.69;4277927;33;20001;-87
2022/10/10 01:23:31;;;;;;;;;;;;;;;15.29;47.01;100769.72;4266088;33;19969;-87
2022/10/10 01:26:01;;;;;;;;;;;;;;;15.38;46.54;100768.97;4272797;33;20001;-86
2022/10/10 01:28:33;;;;;;;;;;;;;;;15.31;47.43;100768.00;4281152;33;20007;-85
2022/10/10 01:31:01;;;;;;;;;;;;;;;15.22;47.51;100770.53;4273184;33;19988;-85
2022/10/10 01:33:30;;;;;;;;;;;;;;;15.14;46.98;100766.06;4253485;33;19969;-87
2022/10/10 01:36:03;;;;;;;;;;;;;;;15.22;47.04;100767.91;4254075;33;19986;-86
2022/10/10 01:38:34;;;;;;;;;;;;;;;15.15;47.01;100759.97;4248751;33;19989;-86
2022/10/10 01:41:34;;;;;;;;;;;;;;;15.16;47.76;100760.00;4239287;33;19989;-85
2022/10/10 01:44:01;;;;;;;;;;;;;;;15.21;47.33;100766.16;4241326;33;19997;-86
2022/10/10 01:46:27;;;;;;;;;;;;;;;15.20;46.87;100759.19;4257837;33;20000;-87
2022/10/10 01:48:54;;;;;;;;;;;;;;;15.10;47.54;100755.59;4252519;33;20033;-86
2022/10/10 01:51:35;;;;;;;;;;;;;;;15.17;47.50;100759.16;4267553;33;19996;-85
2022/10/10 01:54:08;;;;;;;;;;;;;;;15.15;47.66;100757.38;4253382;33;19986;-88
2022/10/10 01:56:38;;;;;;;;;;;;;;;15.22;47.46;100762.69;4266561;33;20024;-85
2022/10/10 01:59:17;;;;;;;;;;;;;;;15.08;47.40;100759.03;4254615;33;20012;-86
2022/10/10 02:01:53;;;;;;;;;;;;;;;15.08;47.53;100764.25;4282919;33;19985;-86
2022/10/10 02:04:33;;;;;;;;;;;;;;;15.15;46.84;100768.69;4282773;33;19996;-87
2022/10/10 02:07:02;;;;;;;;;;;;;;;15.15;47.06;100766.06;4269401;33;19996;-86
2022/10/10 02:09:35;;;;;;;;;;;;;;;15.24;46.60;100760.97;4269115;33;20249;-87
2022/10/10 02:12:03;;;;;;;;;;;;;;;14.95;47.12;100757.12;4249375;33;20008;-86
2022/10/10 02:14:31;;;;;;;;;;;;;;;15.01;47.61;100758.09;3665929;33;10008106;-87
2022/10/10 02:16:57;;;;;;;;;;;;;;;14.83;48.48;100761.31;4255364;33;19993;-87
2022/10/10 02:19:24;;;;;;;;;;;;;;;15.00;47.48;100760.69;4278942;33;19985;-86
2022/10/10 02:21:51;;;;;;;;;;;;;;;14.93;47.95;100758.84;4266397;33;20001;-85
2022/10/10 02:24:19;;;;;;;;;;;;;;;15.10;47.48;100758.19;4269523;33;20003;-85
2022/10/10 02:26:46;;;;;;;;;;;;;;;14.94;46.90;100760.59;4269771;33;20019;-85
2022/10/10 02:29:17;;;;;;;;;;;;;;;14.96;47.24;100756.25;4268906;33;20009;-85
2022/10/10 02:31:44;;;;;;;;;;;;;;;14.92;47.10;100757.97;4269805;33;20003;-85
2022/10/10 02:34:12;;;;;;;;;;;;;;;14.84;48.09;100765.69;4282509;33;20003;-86
2022/10/10 02:36:39;;;;;;;;;;;;;;;14.90;47.51;100772.72;4257331;33;20011;-86
2022/10/10 02:39:06;;;;;;;;;;;;;;;14.88;47.89;100767.47;4262689;33;20016;-85
2022/10/10 02:41:33;;;;;;;;;;;;;;;14.95;47.68;100762.34;4270011;33;19981;-86
2022/10/10 02:44:00;;;;;;;;;;;;;;;14.93;47.41;100758.84;4256076;33;20004;-85
2022/10/10 02:46:26;;;;;;;;;;;;;;;14.92;47.59;100759.69;4269058;33;20031;-88
2022/10/10 02:48:57;;;;;;;;;;;;;;;14.96;47.39;100753.66;4269304;33;20044;-85
2022/10/10 02:51:23;;;;;;;;;;;;;;;14.87;47.55;100755.31;4269328;33;19977;-86
2022/10/10 02:53:55;;;;;;;;;;;;;;;15.07;46.69;100757.28;4270009;33;19993;-86
2022/10/10 02:56:22;;;;;;;;;;;;;;;14.85;47.46;100757.00;4281022;33;19988;-86
2022/10/10 02:58:49;;;;;;;;;;;;;;;14.86;47.37;100756.16;4282545;33;19980;-86
2022/10/10 03:01:16;;;;;;;;;;;;;;;14.92;47.08;100751.87;4282686;33;20015;-86
2022/10/10 03:03:43;;;;;;;;;;;;;;;15.01;47.43;100746.78;4281892;33;20347;-87
2022/10/10 03:06:09;;;;;;;;;;;;;;;15.02;47.49;100748.53;4282579;33;19993;-86
2022/10/10 03:08:37;;;;;;;;;;;;;;;14.71;47.90;100742.94;4281943;33;20004;-85
2022/10/10 03:11:04;;;;;;;;;;;;;;;14.91;47.66;100744.91;4268815;33;20001;-84
2022/10/10 03:13:31;;;;;;;;;;;;;;;14.82;47.33;100751.75;4282550;33;19993;-85
2022/10/10 03:15:58;;;;;;;;;;;;;;;14.94;47.22;100755.41;4282666;33;20334;-85
2022/10/10 03:18:24;;;;;;;;;;;;;;;14.85;47.47;100762.22;4281766;33;20004;-87
2022/10/10 03:20:52;;;;;;;;;;;;;;;14.89;47.43;100753.56;4279910;33;20000;-85
2022/10/10 03:23:19;;;;;;;;;;;;;;;14.74;48.76;100753.41;4282322;33;20280;-85
2022/10/10 03:25:46;;;;;;;;;;;;;;;14.82;48.03;100751.75;4282347;33;19981;-87
2022/10/10 03:28:13;;;;;;;;;;;;;;;14.93;48.01;100751.00;4282448;33;19997;-87
2022/10/10 03:30:40;;;;;;;;;;;;;;;14.66;47.70;100749.78;4282172;33;20379;-85
2022/10/10 03:33:07;;;;;;;;;;;;;;;14.66;48.42;100755.00;4269478;33;19993;-85
2022/10/10 03:35:33;;;;;;;;;;;;;;;14.80;48.22;100753.44;4268440;33;19980;-85
2022/10/10 03:38:02;;;;;;;;;;;;;;;14.53;48.13;100742.66;4277770;33;19981;-85
2022/10/10 03:40:30;;;;;;;;;;;;;;;14.78;47.56;100744.75;4281664;33;20007;-85
2022/10/10 03:42:56;;;;;;;;;;;;;;;14.57;47.67;100749.66;4267820;33;19997;-88
2022/10/10 03:45:23;;;;;;;;;;;;;;;14.60;48.08;100749.69;4259241;33;19985;-85
2022/10/10 03:47:50;;;;;;;;;;;;;;;14.75;47.09;100742.09;4268101;33;20000;-85
2022/10/10 03:50:17;;;;;;;;;;;;;;;14.82;47.41;100754.34;4278166;33;20327;-85
2022/10/10 03:52:44;;;;;;;;;;;;;;;14.74;47.61;100742.97;4276218;33;20008;-87
2022/10/10 03:55:10;;;;;;;;;;;;;;;14.83;47.58;100745.66;4282389;33;20024;-87
2022/10/10 03:57:37;;;;;;;;;;;;;;;14.61;47.66;100741.03;4282209;33;19993;-84
2022/10/10 04:00:04;;;;;;;;;;;;;;;14.67;47.62;100743.72;4282215;33;20012;-86
2022/10/10 04:02:31;;;;;;;;;;;;;;;14.74;48.01;100742.06;4282354;33;20020;-88
2022/10/10 04:04:58;;;;;;;;;;;;;;;14.71;47.94;100748.13;4281689;33;20271;-87
2022/10/10 04:07:25;;;;;;;;;;;;;;;14.68;47.51;100742.88;4281696;33;20327;-85
2022/10/10 04:09:52;;;;;;;;;;;;;;;14.63;47.85;100739.31;4281403;33;20004;-85
2022/10/10 04:12:19;;;;;;;;;;;;;;;14.74;48.29;100735.16;4281085;33;20041;-87
2022/10/10 04:14:46;;;;;;;;;;;;;;;14.64;47.69;100744.56;4282066;33;20421;-84
2022/10/10 04:17:13;;;;;;;;;;;;;;;14.69;48.06;100739.41;4281896;33;20008;-84
2022/10/10 04:19:39;;;;;;;;;;;;;;;14.62;48.55;100742.81;4281584;33;20012;-86
2022/10/10 04:22:06;;;;;;;;;;;;;;;14.70;48.21;100735.94;4261689;33;20000;-83
2022/10/10 04:24:37;;;;;;;;;;;;;;;14.63;48.75;100734.12;4267943;33;20441;-87
2022/10/10 04:27:03;;;;;;;;;;;;;;;14.74;48.55;100735.16;4267859;33;20000;-88
2022/10/10 04:29:30;;;;;;;;;;;;;;;14.61;48.61;100741.03;4280914;33;19984;-85
2022/10/10 04:31:57;;;;;;;;;;;;;;;14.53;48.54;100737.44;4133214;33;5003891;-87
2022/10/10 04:34:24;;;;;;;;;;;;;;;14.37;49.90;100737.19;4284157;33;20008;-82
2022/10/10 04:36:51;;;;;;;;;;;;;;;14.53;49.42;100740.06;4280461;33;20359;-83
2022/10/10 04:39:17;;;;;;;;;;;;;;;14.45;48.96;100731.22;4281536;33;20003;-83
2022/10/10 04:41:48;;;;;;;;;;;;;;;14.54;49.09;100741.81;4280543;33;19993;-83
2022/10/10 04:44:15;;;;;;;;;;;;;;;14.39;49.69;100740.69;4251190;33;20037;-83
2022/10/10 04:46:42;;;;;;;;;;;;;;;14.56;49.07;100748.78;4249638;33;20019;-83
2022/10/10 04:49:09;;;;;;;;;;;;;;;14.55;48.89;100747.03;4265932;33;20273;-83
2022/10/10 04:51:36;;;;;;;;;;;;;;;14.51;49.33;100749.56;4281272;33;19996;-83
2022/10/10 04:54:03;;;;;;;;;;;;;;;14.43;49.10;100739.88;4258833;33;19978;-83
2022/10/10 04:56:30;;;;;;;;;;;;;;;14.54;49.07;100749.63;4257676;33;19985;-83
2022/10/10 04:58:57;;;;;;;;;;;;;;;14.42;49.31;100748.56;4256757;33;20011;-84
2022/10/10 05:01:23;;;;;;;;;;;;;;;14.49;49.60;100748.66;4267274;33;19993;-83
2022/10/10 05:03:50;;;;;;;;;;;;;;;14.47;49.54;100750.34;4255710;33;19990;-85
2022/10/10 05:06:17;;;;;;;;;;;;;;;14.49;49.18;100751.25;4273223;33;19989;-83
2022/10/10 05:08:44;;;;;;;;;;;;;;;14.45;49.88;100754.66;4266328;33;19998;-83
2022/10/10 05:11:11;;;;;;;;;;;;;;;14.42;49.57;100745.97;4266718;33;19989;-82
2022/10/10 05:13:37;;;;;;;;;;;;;;;14.47;49.07;100747.75;4266911;33;19980;-84
2022/10/10 05:16:04;;;;;;;;;;;;;;;14.23;50.39;100751.75;4266060;33;19982;-86
2022/10/10 05:18:31;;;;;;;;;;;;;;;14.49;49.70;100746.06;4255336;33;20363;-85
2022/10/10 05:20:58;;;;;;;;;;;;;;;14.63;49.40;100747.16;4266309;33;21024;-85
2022/10/10 05:23:29;;;;;;;;;;;;;;;14.61;49.17;100751.44;4264614;33;19981;-86
2022/10/10 05:25:56;;;;;;;;;;;;;;;14.62;49.52;100748.00;4265273;33;20003;-87
2022/10/10 05:28:23;;;;;;;;;;;;;;;14.56;49.38;100751.41;4265384;33;19993;-86
2022/10/10 05:30:51;;;;;;;;;;;;;;;14.61;49.44;100756.66;4262761;33;20011;-85
2022/10/10 05:33:17;;;;;;;;;;;;;;;14.59;49.57;100758.38;4266583;33;20032;-85
2022/10/10 05:35:44;;;;;;;;;;;;;;;14.66;49.57;100755.00;4267050;33;20001;-89
2022/10/10 05:38:11;;;;;;;;;;;;;;;14.70;49.45;100754.19;4287771;33;19984;-85
2022/10/10 05:40:38;;;;;;;;;;;;;;;14.71;49.16;100755.97;4283732;33;19968;-86
2022/10/10 05:43:05;;;;;;;;;;;;;;;14.63;49.02;100761.03;4290775;33;19992;-86
2022/10/10 05:45:32;;;;;;;;;;;;;;;14.79;49.14;100756.06;4290754;33;19984;-85
2022/10/10 05:47:59;;;;;;;;;;;;;;;14.91;48.04;100763.16;4283589;33;20056;-86
2022/10/10 05:50:30;;;;;;;;;;;;;;;14.95;47.78;100759.75;4297513;33;19984;-85
2022/10/10 05:52:57;;;;;;;;;;;;;;;14.97;47.56;100760.66;4273877;33;19981;-85
2022/10/10 05:55:24;;;;;;;;;;;;;;;14.98;48.26;100762.37;4262885;33;20009;-85
2022/10/10 05:57:53;;;;;;;;;;;;;;;14.74;47.88;100762.91;4258968;33;19993;-84
2022/10/10 06:00:20;;;;;;;;;;;;;;;15.01;48.26;100757.22;4268138;33;20638;-85
2022/10/10 06:02:47;;;;;;;;;;;;;;;15.07;48.40;100767.72;4282119;33;19995;-85
2022/10/10 06:05:15;;;;;;;;;;;;;;;15.11;47.87;100765.16;4269459;33;20068;-85
2022/10/10 06:07:41;;;;;;;;;;;;;;;14.85;47.86;100767.44;4262624;33;20341;-84
2022/10/10 06:10:28;;;;;;;;;;;;;;;14.92;47.52;100783.16;4267408;33;19981;-84
2022/10/10 06:12:55;;;;;;;;;;;;;;;15.39;46.38;100772.44;4249092;33;20365;-85
2022/10/10 06:15:22;;;;;;;;;;;;;;;15.28;46.49;100768.00;4265762;33;20012;-84
2022/10/10 06:17:49;;;;;;;;;;;;;;;15.04;46.81;100762.47;4280539;33;20024;-84
2022/10/10 06:20:15;;;;;;;;;;;;;;;15.26;47.01;100759.25;4273602;33;19989;-84
2022/10/10 06:22:42;;;;;;;;;;;;;;;15.19;46.51;100761.75;4272468;33;19985;-84
2022/10/10 06:25:09;;;;;;;;;;;;;;;15.23;46.50;100764.44;4268105;33;20351;-84
2022/10/10 06:27:56;;;;;;;;;;;;;;;15.39;46.55;100760.28;4256309;33;20014;-84
2022/10/10 06:30:23;;;;;;;;;;;;;;;15.52;45.04;100761.28;4271494;33;19984;-84
2022/10/10 06:32:49;;;;;;;;;;;;;;;15.41;45.88;100765.50;4280987;33;19988;-84
2022/10/10 06:35:22;;;;;;;;;;;;;;;15.64;45.60;100761.41;4282551;33;20004;-84
2022/10/10 06:37:48;;;;;;;;;;;;;;;15.58;45.38;100761.34;4270360;33;20017;-84
2022/10/10 06:40:15;;;;;;;;;;;;;;;15.77;45.34;100758.09;4281827;33;19988;-83
2022/10/10 06:42:42;;;;;;;;;;;;;;;15.79;45.43;100761.63;4268039;33;19989;-84
2022/10/10 06:45:09;;;;;;;;;;;;;;;15.95;45.04;100751.28;4268274;33;20039;-84
2022/10/10 06:47:36;;;;;;;;;;;;;;;15.99;45.11;100753.94;4282304;33;19993;-84
2022/10/10 06:50:02;;;;;;;;;;;;;;;16.06;44.14;100754.88;4282169;33;19992;-84
2022/10/10 06:52:29;;;;;;;;;;;;;;;16.18;44.28;100764.56;4282020;33;20008;-84
2022/10/10 06:54:56;;;;;;;;;;;;;;;15.87;44.47;100763.41;4277671;33;20091;-83
2022/10/10 06:57:23;;;;;;;;;;;;;;;16.05;44.62;100763.59;4278549;33;19988;-84
2022/10/10 06:59:50;;;;;;;;;;;;;;;16.27;44.23;100755.06;4282109;33;19988;-84
2022/10/10 07:02:16;;;;;;;;;;;;;;;16.55;43.13;100760.44;4282104;33;19985;-83
2022/10/10 07:04:43;;;;;;;;;;;;;;;16.70;42.98;100754.44;4282178;33;19999;-83
2022/10/10 07:07:10;;;;;;;;;;;;;;;16.97;42.71;100753.75;4282136;33;20320;-84
2022/10/10 07:09:37;;;;;;;;;;;;;;;17.22;42.78;100753.84;4282342;33;19993;-84
2022/10/10 07:12:03;;;;;;;;;;;;;;;17.55;41.28;100753.97;4113734;33;5001765;-84
2022/10/10 07:14:30;;;;;;;;;;;;;;;17.93;41.01;100755.78;4261380;33;20001;-85
2022/10/10 07:16:57;;;;;;;;;;;;;;;18.15;40.19;100755.78;4274883;33;20001;-83
2022/10/10 07:19:24;;;;;;;;;;;;;;;18.30;39.40;100761.03;4282638;33;20004;-86
2022/10/10 07:21:51;;;;;;;;;;;;;;;18.51;38.84;100761.00;4273390;33;19977;-84
2022/10/10 07:24:17;;;;;;;;;;;;;;;18.63;38.67;100767.09;4270774;33;20008;-83
2022/10/10 07:26:44;;;;;;;;;;;;;;;18.67;38.50;100756.59;4268897;33;20004;-83
2022/10/10 07:29:12;;;;;;;;;;;;;;;18.79;38.74;100763.56;4282098;33;20274;-84
2022/10/10 07:31:38;;;;;;;;;;;;;;;18.80;38.07;100757.47;4282189;33;19996;-83
2022/10/10 07:34:05;;;;;;;;;;;;;;;18.90;38.19;100756.56;4276007;33;20355;-86
2022/10/10 07:36:32;;;;;;;;;;;;;;;19.10;37.21;100755.63;4274770;33;19989;-82
2022/10/10 07:38:59;;;;;;;;;;;;;;;19.27;37.88;100770.41;4282427;33;20029;-85
2022/10/10 07:41:25;;;;;;;;;;;;;;;19.18;37.24;100766.97;4268718;33;20047;-84
2022/10/10 07:43:53;;;;;;;;;;;;;;;19.49;37.69;100760.66;4282178;33;19985;-83
2022/10/10 07:46:19;;;;;;;;;;;;;;;19.57;37.81;100754.50;4282155;33;20028;-83
2022/10/10 07:48:48;;;;;;;;;;;;;;;19.90;35.85;100762.19;4282260;33;19988;-82
2022/10/10 07:51:15;;;;;;;;;;;;;;;19.98;36.54;100760.38;4282015;33;19999;-83
2022/10/10 07:53:43;;;;;;;;;;;;;;;20.22;36.58;100753.16;4268417;33;19993;-83
2022/10/10 07:56:10;;;;;;;;;;;;;;;20.26;36.13;100752.28;4268385;33;19993;-84
2022/10/10 07:58:37;;;;;;;;;;;;;;;20.23;35.45;100744.41;4280233;33;20024;-83
2022/10/10 08:01:07;;;;;;;;;;;;;;;20.37;35.95;100753.03;4256776;33;19981;-83
2022/10/10 08:03:35;;;;;;;;;;;;;;;20.50;36.55;100747.66;4240628;33;20004;-85
2022/10/10 08:06:02;;;;;;;;;;;;;;;20.47;35.81;100747.69;4263734;33;20014;-85
2022/10/10 08:08:29;;;;;;;;;;;;;;;20.53;36.07;100750.28;4263663;33;20022;-85
2022/10/10 08:11:00;;;;;;;;;;;;;;;20.71;35.54;100742.19;4266356;33;19973;-83
2022/10/10 08:13:26;;;;;;;;;;;;;;;20.62;35.85;100747.56;4279477;33;20359;-87
2022/10/10 08:15:53;;;;;;;;;;;;;;;20.64;35.26;100751.03;4271097;33;19992;-86
2022/10/10 08:18:20;;;;;;;;;;;;;;;20.72;34.58;100748.34;4276943;33;19989;-85
2022/10/10 08:20:47;;;;;;;;;;;;;;;20.49;36.62;100752.03;4266603;33;19994;-86
2022/10/10 08:23:14;;;;;;;;;;;;;;;20.52;37.83;100751.19;4256179;33;19977;-85
2022/10/10 08:25:41;;;;;;;;;;;;;;;20.78;36.42;100738.59;4271065;33;19989;-84
2022/10/10 08:28:07;;;;;;;;;;;;;;;20.76;35.66;100740.38;4277918;33;20007;-84
2022/10/10 08:30:38;;;;;;;;;;;;;;;21.16;35.71;100745.16;4280986;33;20049;-82
2022/10/10 08:33:05;;;;;;;;;;;;;;;21.13;35.03;100739.94;4281293;33;20276;-85
2022/10/10 08:35:35;;;;;;;;;;;;;;;21.14;34.95;100736.41;4255387;33;864532;-86
2022/10/10 08:38:02;;;;;;;;;;;;;;;20.86;35.42;100726.22;4268483;33;20076;-84
2022/10/10 08:40:29;;;;;;;;;;;;;;;20.95;35.73;100729.63;4281912;33;19973;-86
2022/10/10 08:42:56;;;;;;;;;;;;;;;21.17;34.83;100730.25;4268326;33;19996;-86
2022/10/10 08:45:24;;;;;;;;;;;;;;;21.04;34.80;100726.88;4281633;33;19993;-84
2022/10/10 08:48:21;;;;;;;;;;;;;;;20.96;35.35;100731.38;4268241;33;20394;-83
2022/10/10 08:50:49;;;;;;;;;;;;;;;21.02;34.90;100726.03;4273087;33;20008;-83
2022/10/10 08:53:20;;;;;;;;;;;;;;;21.33;34.27;100719.47;4255715;33;20351;-85
2022/10/10 08:55:46;;;;;;;;;;;;;;;21.34;35.22;100715.94;4281678;33;20796;-84
2022/10/10 08:58:15;;;;;;;;;;;;;;;21.36;35.17;100719.44;4280768;33;20001;-85
2022/10/10 09:00:46;;;;;;;;;;;;;;;21.42;34.61;100720.28;4254890;33;19981;-82
2022/10/10 09:03:33;;;;;;;;;;;;;;;21.69;32.62;100713.69;4267142;33;20414;-85
2022/10/10 09:06:04;;;;;;;;;;;;;;;21.61;33.69;100710.34;4239447;33;20001;-86
2022/10/10 09:08:55;;;;;;;;;;;;;;;21.60;34.26;100714.72;4250007;33;19997;-86
2022/10/10 09:11:32;;;;;;;;;;;;;;;21.67;32.95;100711.09;4252840;33;19981;-87
2022/10/10 09:14:18;;;;;;;;;;;;;;;21.42;33.61;100709.72;4266558;33;20413;-87
2022/10/10 09:16:47;;;;;;;;;;;;;;;21.06;36.15;100706.69;4272796;33;20097;-86
2022/10/10 09:19:37;;;;;;;;;;;;;;;21.86;33.14;100710.78;4252241;33;20001;-86
2022/10/10 09:22:04;;;;;;;;;;;;;;;21.94;32.21;100708.91;4247985;33;20004;-85
2022/10/10 09:24:35;;;;;;;;;;;;;;;22.06;32.05;100708.69;4256601;33;20007;-90
2022/10/10 09:27:11;;;;;;;;;;;;;;;21.92;32.01;100700.16;4281352;33;20316;-86
2022/10/10 09:29:53;;;;;;;;;;;;;;;21.87;32.76;100702.00;4265292;33;19997;-87
2022/10/10 09:32:40;;;;;;;;;;;;;;;22.19;31.81;100707.63;3070597;33;10012581;-86
2022/10/10 09:35:14;;;;;;;;;;;;;;;21.85;31.85;100698.50;4244013;33;20102;-86
2022/10/10 09:37:42;;;;;;;;;;;;;;;22.33;31.67;100701.22;4238061;33;20004;-87
2022/10/10 09:40:13;;;;;;;;;;;;;;;22.26;31.09;100703.97;4251234;33;20018;-88
2022/10/10 09:42:40;;;;;;;;;;;;;;;22.03;32.15;100714.03;4252830;33;20048;-86
2022/10/10 09:45:27;;;;;;;;;;;;;;;21.67;34.75;100700.56;4241659;33;20741;-87
2022/10/10 09:47:54;;;;;;;;;;;;;;;21.87;32.89;100707.28;4265749;33;20059;-88
2022/10/10 09:50:21;;;;;;;;;;;;;;;22.23;31.98;100700.53;4252237;33;20004;-85
2022/10/10 09:52:48;;;;;;;;;;;;;;;22.15;31.65;100698.00;4252523;33;19994;-84
2022/10/10 09:55:25;;;;;;;;;;;;;;;22.21;31.66;100697.94;4240641;33;20008;-85
2022/10/10 09:57:54;;;;;;;;;;;;;;;21.74;32.24;100696.94;4253027;33;20000;-87
2022/10/10 10:00:23;;;;;;;;;;;;;;;21.86;32.54;100695.88;4253050;33;20386;-85
2022/10/10 10:03:10;;;;;;;;;;;;;;;22.01;32.58;100689.44;4265294;33;19995;-88
2022/10/10 10:05:36;;;;;;;;;;;;;;;22.30;31.79;100691.59;4271892;33;19994;-87
2022/10/10 10:08:03;;;;;;;;;;;;;;;22.03;31.67;100682.38;4254755;33;20006;-88
2022/10/10 10:10:32;;;;;;;;;;;;;;;22.03;32.37;100693.81;4253978;33;19989;-88
2022/10/10 10:12:59;;;;;;;;;;;;;;;21.61;34.74;100692.75;4253717;33;19977;-89
2022/10/10 10:15:27;;;;;;;;;;;;;;;22.05;32.74;100689.38;4254785;33;20811;-86
2022/10/10 10:18:15;;;;;;;;;;;;;;;22.14;31.92;100685.69;4254698;33;20454;-86
2022/10/10 10:20:43;;;;;;;;;;;;;;;22.40;32.63;100676.47;4247643;33;19985;-89
2022/10/10 10:23:26;;;;;;;;;;;;;;;22.63;31.74;100679.53;4259300;33;19992;-89
2022/10/10 10:25:58;;;;;;;;;;;;;;;22.79;31.00;100684.50;4253763;33;20012;-85
2022/10/10 10:28:25;;;;;;;;;;;;;;;22.62;32.00;100683.09;4267082;33;20037;-86
2022/10/10 10:30:53;;;;;;;;;;;;;;;22.33;33.98;100675.72;4267102;33;20358;-86
2022/10/10 10:33:23;;;;;;;;;;;;;;;22.64;31.96;100670.72;4267698;33;19977;-86
2022/10/10 10:36:09;;;;;;;;;;;;;;;22.71;28.97;100674.09;4266868;33;19993;-90
2022/10/10 10:38:47;;;;;;;;;;;;;;;22.60;30.82;100669.03;4267173;33;20004;-90
2022/10/10 10:41:20;;;;;;;;;;;;;;;22.51;31.77;100669.22;4266381;33;19981;-89
2022/10/10 10:43:50;;;;;;;;;;;;;;;22.62;32.61;100659.34;4254320;33;19996;-89
2022/10/10 10:46:23;;;;;;;;;;;;;;;22.62;32.17;100656.69;4267129;33;20034;-89
2022/10/10 10:48:53;;;;;;;;;;;;;;;22.90;31.21;100654.31;4249788;33;20789;-90
2022/10/10 10:51:26;;;;;;;;;;;;;;;22.81;31.33;100646.59;4267530;33;19989;-90
2022/10/10 10:53:59;;;;;;;;;;;;;;;22.69;31.08;100644.22;4254146;33;20366;-88
2022/10/10 10:56:34;;;;;;;;;;;;;;;22.88;30.26;100642.06;4265889;33;20324;-88
2022/10/10 10:59:11;;;;;;;;;;;;;;;22.90;29.10;100640.25;4267825;33;20019;-93
2022/10/10 11:02:01;;;;;;;;;;;;;;;22.91;29.67;100631.41;4257019;33;19989;-87
2022/10/10 11:04:49;;;;;;;;;;;;;;;23.12;29.36;100636.25;4253624;33;19985;-91
2022/10/10 11:07:38;;;;;;;;;;;;;;;23.18;29.43;100630.84;4267618;33;20052;-87
2022/10/10 11:10:16;;;;;;;;;;;;;;;23.09;28.91;100631.03;4254218;33;20350;-88
2022/10/10 11:13:01;;;;;;;;;;;;;;;23.03;30.09;100633.81;4248682;33;20750;-92
2022/10/10 11:15:28;;;;;;;;;;;;;;;23.06;29.58;100625.84;4267114;33;19978;-91
2022/10/10 11:18:17;;;;;;;;;;;;;;;23.29;29.09;100627.06;4265948;33;20328;-92
2022/10/10 11:20:57;;;;;;;;;;;;;;;23.18;28.92;100625.56;4253230;33;20544;-91
2022/10/10 11:23:27;;;;;;;;;;;;;;;23.01;29.01;100617.16;4253417;33;20672;-92
2022/10/10 11:25:56;;;;;;;;;;;;;;;23.06;28.46;100620.53;4253712;33;20017;-93
2022/10/10 11:28:23;;;;;;;;;;;;;;;23.19;28.03;100613.22;4255249;33;20015;-94
2022/10/10 11:30:53;;;;;;;;;;;;;;;22.96;29.27;100608.47;4261085;33;20630;-91
2022/10/10 11:33:25;;;;;;;;;;;;;;;23.05;28.98;100597.69;4250921;33;19997;-92
2022/10/10 11:36:11;;;;;;;;;;;;;;;23.21;28.79;100599.06;4252630;33;19982;-93
2022/10/10 11:38:44;;;;;;;;;;;;;;;23.09;27.78;100594.06;4250516;33;20011;-90
2022/10/10 11:41:30;;;;;;;;;;;;;;;23.28;27.31;100593.63;4253379;33;20052;-84
2022/10/10 11:44:14;;;;;;;;;;;;;;;23.06;29.06;100593.28;4266494;33;19993;-91
2022/10/10 11:46:42;;;;;;;;;;;;;;;23.26;28.90;100579.59;4250603;33;20025;-88
2022/10/10 11:49:13;;;;;;;;;;;;;;;23.44;28.73;100581.78;4243971;33;20008;-89
2022/10/10 11:51:40;;;;;;;;;;;;;;;23.40;28.67;100581.00;4252168;33;20004;-87
2022/10/10 11:54:20;;;;;;;;;;;;;;;23.26;28.14;100590.16;4252370;33;20001;-92
2022/10/10 11:56:47;;;;;;;;;;;;;;;23.29;27.37;100579.50;4251635;33;19973;-91
2022/10/10 11:59:24;;;;;;;;;;;;;;;23.21;28.75;100577.94;4252880;33;20110;-92
2022/10/10 12:01:53;;;;;;;;;;;;;;;23.23;27.67;100569.09;4253368;33;19981;-85
2022/10/10 12:04:23;;;;;;;;;;;;;;;23.28;28.49;100567.22;4226603;33;19998;-88
2022/10/10 12:06:58;;;;;;;;;;;;;;;23.32;28.78;100560.94;4253588;33;20001;-90
2022/10/10 12:09:27;;;;;;;;;;;;;;;23.03;28.10;100557.25;4263465;33;20421;-92
2022/10/10 12:12:03;;;;;;;;;;;;;;;23.31;27.90;100553.94;4253090;33;20053;-88
2022/10/10 12:14:30;;;;;;;;;;;;;;;23.24;27.61;100552.37;4265614;33;19999;-88
2022/10/10 12:16:57;;;;;;;;;;;;;;;23.29;27.30;100547.81;4253480;33;20000;-94
2022/10/10 12:19:25;;;;;;;;;;;;;;;23.28;28.00;100556.66;4251045;33;20048;-93
2022/10/10 12:21:53;;;;;;;;;;;;;;;23.34;28.18;100553.84;4251218;33;20881;-89
2022/10/10 12:24:20;;;;;;;;;;;;;;;23.55;27.15;100550.69;4263761;33;20003;-87
2022/10/10 12:26:56;;;;;;;;;;;;;;;23.49;27.37;100550.84;4240216;33;20000;-87
2022/10/10 12:29:38;;;;;;;;;;;;;;;23.58;28.28;100533.84;4263454;33;19989;-91
2022/10/10 12:32:09;;;;;;;;;;;;;;;23.51;27.96;100543.72;4263820;33;20001;-91
2022/10/10 12:34:39;;;;;;;;;;;;;;;23.36;27.94;100544.12;4253451;33;19989;-88
2022/10/10 12:37:10;;;;;;;;;;;;;;;23.37;28.77;100546.72;4265142;33;20004;-94
2022/10/10 12:39:38;;;;;;;;;;;;;;;23.07;31.62;100543.09;4258944;33;19985;-92
2022/10/10 12:42:24;;;;;;;;;;;;;;;22.97;29.11;100545.06;4264320;33;20052;-84
2022/10/10 12:44:52;;;;;;;;;;;;;;;23.12;28.91;100541.19;4264410;33;20838;-91
2022/10/10 12:47:24;;;;;;;;;;;;;;;23.01;29.04;100535.31;4254089;33;20020;-92
2022/10/10 12:50:26;;;;;;;;;;;;;;;22.91;28.55;100537.25;4257304;33;20340;-86